sensor_id;sensor_type;location;lat;lon;timestamp;P1;durP1;ratioP1;P2;durP2;ratioP2
45940;SDS011;31858;46.008;8.978;2023-04-03T00:08:20;0.10;;;0.10;;
45940;SDS011;31858;46.008;8.978;2023-04-03T00:18:21;0.68;;;0.30;;
45940;SDS011;31858;46.008;8.978;2023-04-03T00:28:24;0.25;;;0.10;;
45940;SDS011;31858;46.008;8.978;2023-04-03T00:38:26;0.10;;;0.10;;
45940;SDS011;31858;46.008;8.978;2023-04-03T00:48:30;0.80;;;0.10;;
45940;SDS011;31858;46.008;8.978;2023-04-03T00:58:34;1.17;;;0.30;;
45940;SDS011;31858;46.008;8.978;2023-04-03T01:08:42;0.38;;;0.10;;
45940;SDS011;31858;46.008;8.978;2023-04-03T01:18:46;0.20;;;0.20;;
45940;SDS011;31858;46.008;8.978;2023-04-03T01:28:49;0.10;;;0.10;;
45940;SDS011;31858;46.008;8.978;2023-04-03T01:38:53;0.43;;;0.25;;
45940;SDS011;31858;46.008;8.978;2023-04-03T01:48:55;0.20;;;0.17;;
45940;SDS011;31858;46.008;8.978;2023-04-03T01:58:58;0.55;;;0.17;;
45940;SDS011;31858;46.008;8.978;2023-04-03T02:09:00;0.10;;;0.10;;
45940;SDS011;31858;46.008;8.978;2023-04-03T02:19:03;0.13;;;0.13;;
45940;SDS011;31858;46.008;8.978;2023-04-03T02:29:04;1.30;;;0.30;;
45940;SDS011;31858;46.008;8.978;2023-04-03T02:39:07;0.20;;;0.20;;
45940;SDS011;31858;46.008;8.978;2023-04-03T02:49:09;0.30;;;0.20;;
45940;SDS011;31858;46.008;8.978;2023-04-03T02:59:13;0.28;;;0.17;;
45940;SDS011;31858;46.008;8.978;2023-04-03T03:09:14;0.25;;;0.25;;
45940;SDS011;31858;46.008;8.978;2023-04-03T03:19:18;0.10;;;0.10;;
45940;SDS011;31858;46.008;8.978;2023-04-03T03:29:19;0.17;;;0.17;;
45940;SDS011;31858;46.008;8.978;2023-04-03T03:39:22;0.73;;;0.10;;
45940;SDS011;31858;46.008;8.978;2023-04-03T03:49:24;0.35;;;0.20;;
45940;SDS011;31858;46.008;8.978;2023-04-03T03:59:27;1.88;;;0.20;;
45940;SDS011;31858;46.008;8.978;2023-04-03T04:09:28;0.10;;;0.10;;
45940;SDS011;31858;46.008;8.978;2023-04-03T04:19:31;9.73;;;5.47;;
45940;SDS011;31858;46.008;8.978;2023-04-03T04:29:33;0.82;;;0.82;;
45940;SDS011;31858;46.008;8.978;2023-04-03T04:39:37;2.15;;;1.25;;
45940;SDS011;31858;46.008;8.978;2023-04-03T04:49:39;1.70;;;0.22;;
45940;SDS011;31858;46.008;8.978;2023-04-03T04:59:42;0.52;;;0.47;;
45940;SDS011;31858;46.008;8.978;2023-04-03T05:09:44;0.20;;;0.20;;
45940;SDS011;31858;46.008;8.978;2023-04-03T05:19:47;0.10;;;0.10;;
45940;SDS011;31858;46.008;8.978;2023-04-03T05:29:48;0.20;;;0.20;;
45940;SDS011;31858;46.008;8.978;2023-04-03T05:39:51;0.10;;;0.10;;
45940;SDS011;31858;46.008;8.978;2023-04-03T05:49:53;1.60;;;1.02;;
45940;SDS011;31858;46.008;8.978;2023-04-03T05:59:56;0.30;;;0.30;;
45940;SDS011;31858;46.008;8.978;2023-04-03T06:09:57;1.65;;;0.17;;
45940;SDS011;31858;46.008;8.978;2023-04-03T06:20:00;1.55;;;0.20;;
45940;SDS011;31858;46.008;8.978;2023-04-03T06:30:03;0.63;;;0.25;;
45940;SDS011;31858;46.008;8.978;2023-04-03T06:40:09;0.20;;;0.20;;
45940;SDS011;31858;46.008;8.978;2023-04-03T06:50:16;0.20;;;0.20;;
45940;SDS011;31858;46.008;8.978;2023-04-03T07:00:20;0.55;;;0.30;;
45940;SDS011;31858;46.008;8.978;2023-04-03T07:10:22;0.20;;;0.20;;
45940;SDS011;31858;46.008;8.978;2023-04-03T07:20:25;0.47;;;0.10;;
45940;SDS011;31858;46.008;8.978;2023-04-03T07:30:26;0.17;;;0.17;;
45940;SDS011;31858;46.008;8.978;2023-04-03T07:40:29;0.13;;;0.13;;
45940;SDS011;31858;46.008;8.978;2023-04-03T07:50:31;1.85;;;0.63;;
45940;SDS011;31858;46.008;8.978;2023-04-03T08:00:34;0.20;;;0.20;;
45940;SDS011;31858;46.008;8.978;2023-04-03T08:10:35;1.70;;;0.30;;
45940;SDS011;31858;46.008;8.978;2023-04-03T08:20:39;0.20;;;0.20;;
45940;SDS011;31858;46.008;8.978;2023-04-03T08:30:41;0.47;;;0.20;;
45940;SDS011;31858;46.008;8.978;2023-04-03T08:40:45;2.25;;;0.10;;
45940;SDS011;31858;46.008;8.978;2023-04-03T08:50:47;0.47;;;0.38;;
45940;SDS011;31858;46.008;8.978;2023-04-03T09:00:55;0.28;;;0.15;;
45940;SDS011;31858;46.008;8.978;2023-04-03T09:11:05;1.75;;;0.10;;
45940;SDS011;31858;46.008;8.978;2023-04-03T09:21:16;0.10;;;0.10;;
45940;SDS011;31858;46.008;8.978;2023-04-03T09:31:26;1.88;;;0.20;;
45940;SDS011;31858;46.008;8.978;2023-04-03T09:41:31;0.30;;;0.10;;
45940;SDS011;31858;46.008;8.978;2023-04-03T09:51:33;0.20;;;0.20;;
45940;SDS011;31858;46.008;8.978;2023-04-03T10:01:37;0.20;;;0.10;;
45940;SDS011;31858;46.008;8.978;2023-04-03T10:11:40;0.10;;;0.10;;
45940;SDS011;31858;46.008;8.978;2023-04-03T10:22:02;0.40;;;0.10;;
45940;SDS011;31858;46.008;8.978;2023-04-03T10:32:16;0.10;;;0.10;;
45940;SDS011;31858;46.008;8.978;2023-04-03T10:42:32;0.20;;;0.15;;
45940;SDS011;31858;46.008;8.978;2023-04-03T10:52:40;0.50;;;0.10;;
45940;SDS011;31858;46.008;8.978;2023-04-03T11:02:49;2.03;;;0.28;;
45940;SDS011;31858;46.008;8.978;2023-04-03T11:12:54;0.20;;;0.10;;
45940;SDS011;31858;46.008;8.978;2023-04-03T11:23:06;0.00;;;0.00;;
45940;SDS011;31858;46.008;8.978;2023-04-03T11:33:24;0.20;;;0.20;;
45940;SDS011;31858;46.008;8.978;2023-04-03T11:43:41;0.52;;;0.20;;
45940;SDS011;31858;46.008;8.978;2023-04-03T11:53:55;1.45;;;0.20;;
45940;SDS011;31858;46.008;8.978;2023-04-03T12:04:38;0.20;;;0.20;;
45940;SDS011;31858;46.008;8.978;2023-04-03T12:14:39;0.20;;;0.20;;
45940;SDS011;31858;46.008;8.978;2023-04-03T12:24:43;3.08;;;0.38;;
45940;SDS011;31858;46.008;8.978;2023-04-03T12:34:51;0.10;;;0.10;;
45940;SDS011;31858;46.008;8.978;2023-04-03T12:45:08;0.93;;;0.30;;
45940;SDS011;31858;46.008;8.978;2023-04-03T12:55:19;2.00;;;0.30;;
45940;SDS011;31858;46.008;8.978;2023-04-03T13:05:23;0.32;;;0.30;;
45940;SDS011;31858;46.008;8.978;2023-04-03T13:15:26;0.40;;;0.20;;
45940;SDS011;31858;46.008;8.978;2023-04-03T13:25:31;0.50;;;0.40;;
45940;SDS011;31858;46.008;8.978;2023-04-03T13:35:36;0.30;;;0.30;;
45940;SDS011;31858;46.008;8.978;2023-04-03T13:45:42;0.08;;;0.08;;
45940;SDS011;31858;46.008;8.978;2023-04-03T13:56:00;0.20;;;0.20;;
45940;SDS011;31858;46.008;8.978;2023-04-03T14:06:11;0.10;;;0.10;;
45940;SDS011;31858;46.008;8.978;2023-04-03T14:16:15;0.98;;;0.38;;
45940;SDS011;31858;46.008;8.978;2023-04-03T14:26:21;0.52;;;0.15;;
45940;SDS011;31858;46.008;8.978;2023-04-03T14:36:27;0.10;;;0.10;;
45940;SDS011;31858;46.008;8.978;2023-04-03T14:46:32;2.30;;;0.30;;
45940;SDS011;31858;46.008;8.978;2023-04-03T14:56:36;0.68;;;0.13;;
45940;SDS011;31858;46.008;8.978;2023-04-03T15:06:39;0.13;;;0.13;;
45940;SDS011;31858;46.008;8.978;2023-04-03T15:16:41;0.35;;;0.20;;
45940;SDS011;31858;46.008;8.978;2023-04-03T15:26:44;0.28;;;0.28;;
45940;SDS011;31858;46.008;8.978;2023-04-03T15:36:46;0.20;;;0.20;;
45940;SDS011;31858;46.008;8.978;2023-04-03T15:46:49;0.50;;;0.20;;
45940;SDS011;31858;46.008;8.978;2023-04-03T15:56:51;0.20;;;0.20;;
45940;SDS011;31858;46.008;8.978;2023-04-03T16:06:54;0.22;;;0.22;;
45940;SDS011;31858;46.008;8.978;2023-04-03T16:16:56;0.35;;;0.30;;
45940;SDS011;31858;46.008;8.978;2023-04-03T16:27:01;0.17;;;0.17;;
45940;SDS011;31858;46.008;8.978;2023-04-03T16:37:03;0.40;;;0.40;;
45940;SDS011;31858;46.008;8.978;2023-04-03T16:47:06;0.43;;;0.30;;
45940;SDS011;31858;46.008;8.978;2023-04-03T16:57:08;0.30;;;0.30;;
45940;SDS011;31858;46.008;8.978;2023-04-03T17:07:11;0.20;;;0.20;;
45940;SDS011;31858;46.008;8.978;2023-04-03T17:17:13;0.85;;;0.40;;
45940;SDS011;31858;46.008;8.978;2023-04-03T17:27:16;0.47;;;0.47;;
45940;SDS011;31858;46.008;8.978;2023-04-03T17:37:18;0.30;;;0.30;;
45940;SDS011;31858;46.008;8.978;2023-04-03T17:47:21;0.52;;;0.40;;
45940;SDS011;31858;46.008;8.978;2023-04-03T17:57:22;2.30;;;0.60;;
45940;SDS011;31858;46.008;8.978;2023-04-03T18:07:25;0.68;;;0.65;;
45940;SDS011;31858;46.008;8.978;2023-04-03T18:17:28;0.40;;;0.40;;
45940;SDS011;31858;46.008;8.978;2023-04-03T18:27:31;0.77;;;0.60;;
45940;SDS011;31858;46.008;8.978;2023-04-03T18:37:33;0.50;;;0.50;;
45940;SDS011;31858;46.008;8.978;2023-04-03T18:47:36;0.63;;;0.63;;
45940;SDS011;31858;46.008;8.978;2023-04-03T18:57:38;0.50;;;0.50;;
45940;SDS011;31858;46.008;8.978;2023-04-03T19:07:41;0.60;;;0.60;;
45940;SDS011;31858;46.008;8.978;2023-04-03T19:17:44;3.20;;;0.60;;
45940;SDS011;31858;46.008;8.978;2023-04-03T19:27:47;0.47;;;0.47;;
45940;SDS011;31858;46.008;8.978;2023-04-03T19:37:49;4.15;;;0.70;;
45940;SDS011;31858;46.008;8.978;2023-04-03T19:47:53;0.70;;;0.70;;
45940;SDS011;31858;46.008;8.978;2023-04-03T19:57:58;7.60;;;3.75;;
45940;SDS011;31858;46.008;8.978;2023-04-03T20:08:02;10.35;;;3.60;;
45940;SDS011;31858;46.008;8.978;2023-04-03T20:18:03;6.45;;;4.07;;
45940;SDS011;31858;46.008;8.978;2023-04-03T20:28:06;6.82;;;3.65;;
45940;SDS011;31858;46.008;8.978;2023-04-03T20:38:09;10.65;;;3.88;;
45940;SDS011;31858;46.008;8.978;2023-04-03T20:48:12;9.40;;;3.92;;
45940;SDS011;31858;46.008;8.978;2023-04-03T20:58:13;7.07;;;3.72;;
45940;SDS011;31858;46.008;8.978;2023-04-03T21:29:09;7.05;;;4.00;;
45940;SDS011;31858;46.008;8.978;2023-04-03T21:39:12;15.05;;;4.20;;
45940;SDS011;31858;46.008;8.978;2023-04-03T21:49:14;8.25;;;3.45;;
45940;SDS011;31858;46.008;8.978;2023-04-03T21:59:17;5.28;;;3.22;;
45940;SDS011;31858;46.008;8.978;2023-04-03T22:09:19;7.07;;;3.25;;
45940;SDS011;31858;46.008;8.978;2023-04-03T22:19:22;6.07;;;3.17;;
45940;SDS011;31858;46.008;8.978;2023-04-03T22:29:24;5.10;;;3.00;;
45940;SDS011;31858;46.008;8.978;2023-04-03T22:39:28;5.05;;;2.95;;
45940;SDS011;31858;46.008;8.978;2023-04-03T22:49:29;8.15;;;2.85;;
45940;SDS011;31858;46.008;8.978;2023-04-03T22:59:33;6.13;;;3.10;;
45940;SDS011;31858;46.008;8.978;2023-04-03T23:09:35;4.13;;;2.45;;
45940;SDS011;31858;46.008;8.978;2023-04-03T23:19:39;4.45;;;2.33;;
45940;SDS011;31858;46.008;8.978;2023-04-03T23:29:41;7.03;;;2.53;;
45940;SDS011;31858;46.008;8.978;2023-04-03T23:39:44;10.48;;;2.25;;
45940;SDS011;31858;46.008;8.978;2023-04-03T23:49:46;4.65;;;2.30;;
45940;SDS011;31858;46.008;8.978;2023-04-03T23:59:48;5.75;;;2.10;;
